Terminal Aerodrome Forecast
Issued by NWS New Orleans/Baton Rouge, LA

Home | Current Version | Previous Version | Text Only | Print | Product List | Glossary On
Versions: 1 2 3 4 5 6 7 8 9 10 11 12 13 14
000
FTUS44 KLIX 230900 AAA
TAFBTR
TAF AMD
KBTR 230955Z 2310/2406 14009KT 6SM -RA OVC006
      TEMPO 2311/2314 VRB20KT 3SM TSRA BR BKN008 OVC015CB
     FM231400 18012KT 3SM -SHRA BKN009
     FM231800 22014KT P6SM SCT025
     FM240000 21009KT P6SM SCT250=

USA.gov is the U.S. government's official web portal to all federal, state and local government web resources and services.